الصفحة الرئيسية
METAR-TAF:

METAR-TAF

مطار :

تشيتا, روسيا

دائرة عرض: 52-05N, خط طول: 113-29E, ارتفاع: 685 متر

مراقبة الطقس الحالي

تاريخ ووقت الإصدار 37 دقيقة قبل الساعة 00:30UTC
ريح 2 عقدة من الجنوب الغربي
درجة الحرارة 16°درجة مئوية
الرطوبة 72%
ضغط 1003 hPa
الرؤية 10 كم أو أكثر
غيوم متفرقة على ارتفاع 5000 قدم, مزنة ركامية.

METAR: UIAA 240030Z 22001MPS 9999 SCT050CB 16/11 Q1003 R29/70D NOSIG RMK QFE694/0925

زمن: 10:07 (01:07 UTC)

توقعات

تاريخ ووقت الإصدار 2ساعات و 7 دقيقة قبل الساعة 23:00UTC
التوقعات صالحة من24 الساعة 00 UTC إلى 24 الساعة 24 UTC
ريح 6 عقدة من الشمال الغربي تتزايد حتى 17 عقدة
الرؤية 10 كم أو أكثر
غيوم متفرقة على ارتفاع 3000 قدم, مزنة ركامية.
مؤقت
من 24 الساعة 00 UTC إلى 24 الساعة 12 UTC
الرؤية: 3100 متر
غيوم مفككة على ارتفاع 1400 قدم, مزنة ركامية.
زخات من الأمطار الخفيفة

TAF: UIAA 232300Z 2400/2424 32003G09MPS 9999 SCT030CB TEMPO 2400/2412 3100 -SHRA BKN014CB

أرصاد الطقس والتوقعات من أكثر من 4000 مطار (تقارير الطقس للمطار METAR والتنبؤ بالطقس بالمطارTAF).

المحطات المتاحة هي النقط الصفراء والحمراء على الخريطة.

حرك المؤشر فوق النقطة لمعرفة اسم المحطة.

ثم انقر لمعرفة أرصاد وتوقعات الطقس.

لتغيير الخارطة: اضغط على الأزرار الخضراء مع رمز الصليب الأسود للتكبير. على الزر الأخضر مع شرطة للتصغير، أو على الأسهم الخضراء للخرائط المجاورة.


METAR-TAF: